createdAt,value
2023-05-28T00:01:00.029Z,7.63
2023-05-28T00:04:05.930Z,7.84
2023-05-28T00:07:11.999Z,7.72
2023-05-28T00:10:19.207Z,7.73
2023-05-28T00:13:23.000Z,7.81
2023-05-28T00:16:28.421Z,7.83
2023-05-28T00:19:36.716Z,7.80
2023-05-28T00:22:41.063Z,7.64
2023-05-28T00:25:47.543Z,7.69
2023-05-28T00:28:53.649Z,7.80
2023-05-28T00:32:00.831Z,7.79
2023-05-28T00:35:10.203Z,7.68
2023-05-28T00:38:13.947Z,7.79
2023-05-28T00:41:24.058Z,7.60
2023-05-28T00:44:28.484Z,7.43
2023-05-28T00:47:32.628Z,7.68
2023-05-28T00:50:39.531Z,7.54
2023-05-28T00:53:46.450Z,7.48
2023-05-28T00:56:58.551Z,7.44
2023-05-28T01:00:15.425Z,7.46
2023-05-28T01:03:19.303Z,7.39
2023-05-28T01:06:25.121Z,7.33
2023-05-28T01:09:30.305Z,7.30
2023-05-28T01:12:35.238Z,7.18
2023-05-28T01:15:41.854Z,7.21
2023-05-28T01:18:46.767Z,7.16
2023-05-28T01:22:00.533Z,7.05
2023-05-28T01:25:10.526Z,7.10
2023-05-28T01:28:15.149Z,6.95
2023-05-28T01:31:19.464Z,6.86
2023-05-28T01:34:23.798Z,6.63
2023-05-28T01:37:28.403Z,6.72
2023-05-28T01:40:36.137Z,6.60
2023-05-28T01:43:39.956Z,6.63
2023-05-28T01:46:44.601Z,6.35
2023-05-28T01:49:48.604Z,6.49
2023-05-28T01:52:53.262Z,6.58
2023-05-28T01:55:58.922Z,6.24
2023-05-28T01:59:03.489Z,6.41
2023-05-28T02:02:07.120Z,6.19
2023-05-28T02:05:11.638Z,6.36
2023-05-28T02:08:15.081Z,6.30
2023-05-28T02:11:20.182Z,6.42
2023-05-28T02:14:23.660Z,6.49
2023-05-28T02:17:27.384Z,6.23
2023-05-28T02:20:30.977Z,6.44
2023-05-28T02:23:34.510Z,6.38
2023-05-28T02:26:39.320Z,6.56
2023-05-28T02:29:44.238Z,6.33
2023-05-28T02:32:47.802Z,6.37
2023-05-28T02:35:53.981Z,6.26
2023-05-28T02:38:58.324Z,6.23
2023-05-28T02:42:03.303Z,6.15
2023-05-28T02:45:08.122Z,6.18
2023-05-28T02:48:11.571Z,6.27
2023-05-28T02:51:15.626Z,6.19
2023-05-28T02:54:24.844Z,6.18
2023-05-28T02:57:30.967Z,6.09
2023-05-28T03:00:34.855Z,6.18
2023-05-28T03:03:38.591Z,6.01
2023-05-28T03:06:42.467Z,5.95
2023-05-28T03:09:46.103Z,6.11
2023-05-28T03:12:51.124Z,6.04
2023-05-28T03:15:55.014Z,6.22
2023-05-28T03:18:58.910Z,6.46
2023-05-28T03:22:03.729Z,6.36
2023-05-28T03:25:12.575Z,6.53
2023-05-28T03:28:17.440Z,6.54
2023-05-28T03:31:46.625Z,6.62
2023-05-28T03:34:52.885Z,6.71
2023-05-28T03:38:02.283Z,6.78
2023-05-28T03:41:05.782Z,6.70
2023-05-28T03:44:12.023Z,6.80
2023-05-28T03:47:15.594Z,6.93
2023-05-28T03:50:19.328Z,7.01
2023-05-28T03:53:23.076Z,7.24
2023-05-28T03:56:26.465Z,7.34
2023-05-28T03:59:31.477Z,7.45
2023-05-28T04:02:35.039Z,7.37
2023-05-28T04:05:38.453Z,7.59
2023-05-28T04:08:41.861Z,7.73
2023-05-28T04:11:45.324Z,7.81
2023-05-28T04:14:52.377Z,8.02
2023-05-28T04:17:55.820Z,8.10
2023-05-28T04:20:59.445Z,8.26
2023-05-28T04:24:02.938Z,8.41
2023-05-28T04:27:07.567Z,8.61
2023-05-28T04:30:13.989Z,8.82
2023-05-28T04:33:20.466Z,8.86
2023-05-28T04:36:30.484Z,9.01
2023-05-28T04:39:35.606Z,9.18
2023-05-28T04:42:39.079Z,9.13
2023-05-28T04:45:44.367Z,9.32
2023-05-28T04:48:48.205Z,9.30
2023-05-28T04:51:51.632Z,9.66
2023-05-28T04:54:55.123Z,9.77
2023-05-28T04:57:58.691Z,9.76
2023-05-28T05:01:06.416Z,9.89
2023-05-28T05:04:10.743Z,10.27
2023-05-28T05:07:14.425Z,10.41
2023-05-28T05:10:18.251Z,10.61
2023-05-28T05:13:21.696Z,10.83
2023-05-28T05:16:26.710Z,10.87
2023-05-28T05:19:30.470Z,10.99
2023-05-28T05:22:35.287Z,11.07
2023-05-28T05:25:39.645Z,11.12
2023-05-28T05:28:43.886Z,11.47
2023-05-28T05:31:49.096Z,11.73
2023-05-28T05:34:52.823Z,11.91
2023-05-28T05:38:14.805Z,12.16
2023-05-28T05:41:44.670Z,12.12
2023-05-28T05:44:55.402Z,12.19
2023-05-28T05:48:00.188Z,12.52
2023-05-28T05:51:04.105Z,12.48
2023-05-28T05:54:08.106Z,12.99
2023-05-28T05:57:12.149Z,13.24
2023-05-28T06:00:16.730Z,13.39
2023-05-28T06:03:30.060Z,13.69
2023-05-28T06:06:37.950Z,13.85
2023-05-28T06:10:10.669Z,14.53
2023-05-28T06:13:16.035Z,14.44
2023-05-28T06:16:19.489Z,14.52
2023-05-28T06:19:24.886Z,14.46
2023-05-28T06:22:28.736Z,14.99
2023-05-28T06:25:32.444Z,15.21
2023-05-28T06:28:36.850Z,15.15
2023-05-28T06:31:41.504Z,15.50
2023-05-28T06:34:47.036Z,15.98
2023-05-28T06:37:51.552Z,15.88
2023-05-28T06:40:55.105Z,16.09
2023-05-28T06:44:01.088Z,16.55
2023-05-28T06:47:11.539Z,16.19
2023-05-28T06:50:16.649Z,16.14
2023-05-28T06:53:20.335Z,16.51
2023-05-28T06:56:24.696Z,16.38
2023-05-28T06:59:46.548Z,16.11
2023-05-28T07:03:00.402Z,16.68
2023-05-28T07:06:35.254Z,16.93
2023-05-28T07:09:39.960Z,17.05
2023-05-28T07:12:44.072Z,17.30
2023-05-28T07:15:47.758Z,17.19
2023-05-28T07:18:51.620Z,17.20
2023-05-28T07:21:57.199Z,17.57
2023-05-28T07:25:01.398Z,17.98
2023-05-28T07:28:05.271Z,17.82
2023-05-28T07:31:11.023Z,17.73
2023-05-28T07:34:14.999Z,17.74
2023-05-28T07:37:22.027Z,17.34
2023-05-28T07:40:27.983Z,18.08
2023-05-28T07:43:39.498Z,18.12
2023-05-28T07:46:49.485Z,18.05
2023-05-28T07:50:24.701Z,17.54
2023-05-28T07:53:39.039Z,18.11
2023-05-28T07:56:46.528Z,17.86
2023-05-28T07:59:57.571Z,18.24
2023-05-28T08:03:01.440Z,18.41
2023-05-28T08:06:18.737Z,18.19
2023-05-28T08:09:24.476Z,18.66
2023-05-28T08:12:30.868Z,18.52
2023-05-28T08:15:34.435Z,18.11
2023-05-28T08:18:40.297Z,18.19
2023-05-28T08:21:44.170Z,18.17
2023-05-28T08:24:50.724Z,18.31
2023-05-28T08:27:54.275Z,18.29
2023-05-28T08:30:58.449Z,18.14
2023-05-28T08:34:27.652Z,18.61
2023-05-28T08:37:32.475Z,18.84
2023-05-28T08:40:52.557Z,18.25
2023-05-28T08:43:56.121Z,18.54
2023-05-28T08:47:01.625Z,18.81
2023-05-28T08:50:15.218Z,19.28
2023-05-28T08:53:35.077Z,19.36
2023-05-28T08:56:41.591Z,19.73
2023-05-28T08:59:47.158Z,19.65
2023-05-28T09:02:51.823Z,19.36
2023-05-28T09:05:56.049Z,19.07
2023-05-28T09:09:01.193Z,19.05
2023-05-28T09:12:27.629Z,19.40
2023-05-28T09:15:37.577Z,19.38
2023-05-28T09:18:44.439Z,19.43
2023-05-28T09:22:02.615Z,19.99
2023-05-28T09:25:13.457Z,19.91
2023-05-28T09:28:30.041Z,19.98
2023-05-28T09:31:35.040Z,20.08
2023-05-28T09:34:44.352Z,19.57
2023-05-28T09:37:48.880Z,19.93
2023-05-28T09:40:52.471Z,19.49
2023-05-28T09:44:01.895Z,19.84
2023-05-28T09:47:15.861Z,19.95
2023-05-28T09:50:19.995Z,20.02
2023-05-28T09:53:25.016Z,19.71
2023-05-28T09:56:34.462Z,19.55
2023-05-28T09:59:46.985Z,20.18
2023-05-28T10:03:02.726Z,20.86
2023-05-28T10:06:14.146Z,20.38
2023-05-28T10:09:21.232Z,20.27
2023-05-28T10:12:30.400Z,20.70
2023-05-28T10:15:36.057Z,21.00
2023-05-28T10:18:41.851Z,20.43
2023-05-28T10:21:46.128Z,20.39
2023-05-28T10:24:51.761Z,19.65
2023-05-28T10:28:01.009Z,20.37
2023-05-28T10:31:11.352Z,20.80
2023-05-28T10:34:18.563Z,21.14
2023-05-28T10:37:26.300Z,20.92
2023-05-28T10:40:30.333Z,20.44
2023-05-28T10:43:46.814Z,20.40
2023-05-28T10:46:58.694Z,20.43
2023-05-28T10:50:14.925Z,21.18
2023-05-28T10:53:20.795Z,20.96
2023-05-28T10:56:28.316Z,20.46
2023-05-28T10:59:40.117Z,21.18
2023-05-28T11:02:48.523Z,21.18
2023-05-28T11:05:53.757Z,21.24
2023-05-28T11:08:59.712Z,21.42
2023-05-28T11:12:05.039Z,21.73
2023-05-28T11:15:10.549Z,21.44
2023-05-28T11:18:15.550Z,21.51
2023-05-28T11:21:19.301Z,21.79
2023-05-28T11:24:22.937Z,20.67
2023-05-28T11:27:30.028Z,21.89
2023-05-28T11:30:34.700Z,21.67
2023-05-28T11:33:39.816Z,21.76
2023-05-28T11:36:46.928Z,21.82
2023-05-28T11:39:51.650Z,21.43
2023-05-28T11:43:01.573Z,22.29
2023-05-28T11:46:08.428Z,21.92
2023-05-28T11:49:13.871Z,22.31
2023-05-28T11:52:18.791Z,22.12
2023-05-28T11:55:22.426Z,21.99
2023-05-28T11:58:32.500Z,22.48
2023-05-28T12:01:36.349Z,22.08
2023-05-28T12:04:41.684Z,21.44
2023-05-28T12:07:50.248Z,22.33
2023-05-28T12:10:54.384Z,22.47
2023-05-28T12:14:01.290Z,20.94
2023-05-28T12:17:10.031Z,21.23
2023-05-28T12:20:34.108Z,22.07
2023-05-28T12:23:38.041Z,22.59
2023-05-28T12:26:41.898Z,23.21
2023-05-28T12:29:45.883Z,22.37
2023-05-28T12:32:49.630Z,22.97
2023-05-28T12:35:54.894Z,23.22
2023-05-28T12:38:58.587Z,22.55
2023-05-28T12:42:02.274Z,22.14
2023-05-28T12:45:07.764Z,22.04
2023-05-28T12:48:11.693Z,22.89
2023-05-28T12:51:19.478Z,22.77
2023-05-28T12:54:23.857Z,23.06
2023-05-28T12:57:27.675Z,22.87
2023-05-28T13:00:31.421Z,23.13
2023-05-28T13:03:35.310Z,22.72
2023-05-28T13:06:43.273Z,23.41
2023-05-28T13:09:46.721Z,23.31
2023-05-28T13:12:50.717Z,22.66
2023-05-28T13:15:54.620Z,23.26
2023-05-28T13:18:58.870Z,23.38
2023-05-28T13:22:03.977Z,23.68
2023-05-28T13:25:08.981Z,23.72
2023-05-28T13:28:12.433Z,23.44
2023-05-28T13:31:16.661Z,22.65
2023-05-28T13:34:20.224Z,23.41
2023-05-28T13:37:25.104Z,23.76
2023-05-28T13:40:29.402Z,23.27
2023-05-28T13:43:33.618Z,22.91
2023-05-28T13:46:39.066Z,23.41
2023-05-28T13:49:45.683Z,24.09
2023-05-28T13:52:50.911Z,23.75
2023-05-28T13:55:54.446Z,23.87
2023-05-28T13:58:59.484Z,23.66
2023-05-28T14:02:04.542Z,23.01
2023-05-28T14:05:09.584Z,23.04
2023-05-28T14:08:15.456Z,23.32
2023-05-28T14:11:19.693Z,23.11
2023-05-28T14:14:23.572Z,23.37
2023-05-28T14:17:27.352Z,23.26
2023-05-28T14:20:35.794Z,23.42
2023-05-28T14:23:40.978Z,23.81
2023-05-28T14:26:44.540Z,23.59
2023-05-28T14:29:50.989Z,23.11
2023-05-28T14:32:54.775Z,23.62
2023-05-28T14:36:11.573Z,23.41
2023-05-28T14:39:29.891Z,23.90
2023-05-28T14:42:34.843Z,24.15
2023-05-28T14:45:38.369Z,23.67
2023-05-28T14:48:42.183Z,23.87
2023-05-28T14:51:45.827Z,23.74
2023-05-28T14:54:50.942Z,23.70
2023-05-28T14:57:54.902Z,23.47
2023-05-28T15:00:58.588Z,23.13
2023-05-28T15:04:02.571Z,23.63
2023-05-28T15:07:06.626Z,23.43
2023-05-28T15:10:12.513Z,23.26
2023-05-28T15:13:16.254Z,23.34
2023-05-28T15:16:22.426Z,23.02
2023-05-28T15:19:26.468Z,23.47
2023-05-28T15:22:29.927Z,23.20
2023-05-28T15:25:35.558Z,23.03
2023-05-28T15:28:39.388Z,22.62
2023-05-28T15:31:43.821Z,23.06
2023-05-28T15:34:47.739Z,22.58
2023-05-28T15:37:51.896Z,22.51
2023-05-28T15:40:57.904Z,22.72
2023-05-28T15:44:01.633Z,23.05
2023-05-28T15:47:05.748Z,22.83
2023-05-28T15:50:09.877Z,22.54
2023-05-28T15:53:13.835Z,21.91
2023-05-28T15:56:18.897Z,21.81
2023-05-28T15:59:23.357Z,21.77
2023-05-28T16:02:30.904Z,21.76
2023-05-28T16:05:36.878Z,21.91
2023-05-28T16:08:40.926Z,21.73
2023-05-28T16:11:50.338Z,21.66
2023-05-28T16:14:55.363Z,21.64
2023-05-28T16:18:00.338Z,21.55
2023-05-28T16:21:04.707Z,21.56
2023-05-28T16:24:08.746Z,21.36
2023-05-28T16:27:15.233Z,20.99
2023-05-28T16:30:20.345Z,21.06
2023-05-28T16:33:24.310Z,21.04
2023-05-28T16:36:28.704Z,20.93
2023-05-28T16:39:32.843Z,20.96
2023-05-28T16:42:41.629Z,20.92
2023-05-28T16:45:45.614Z,20.63
2023-05-28T16:48:49.890Z,20.43
2023-05-28T16:51:53.916Z,20.46
2023-05-28T16:54:59.271Z,20.34
2023-05-28T16:58:04.092Z,20.18
2023-05-28T17:01:08.921Z,20.33
2023-05-28T17:04:13.013Z,20.44
2023-05-28T17:07:16.756Z,20.07
2023-05-28T17:10:20.678Z,20.04
2023-05-28T17:13:25.711Z,19.96
2023-05-28T17:16:29.182Z,19.99
2023-05-28T17:19:33.123Z,20.10
2023-05-28T17:22:36.980Z,19.91
2023-05-28T17:25:41.244Z,19.83
2023-05-28T17:28:46.364Z,19.63
2023-05-28T17:31:50.054Z,19.33
2023-05-28T17:34:54.589Z,19.34
2023-05-28T17:37:58.512Z,19.41
2023-05-28T17:41:04.225Z,18.97
2023-05-28T17:44:13.983Z,19.28
2023-05-28T17:47:17.793Z,19.15
2023-05-28T17:50:23.934Z,18.79
2023-05-28T17:53:32.569Z,18.98
2023-05-28T17:56:40.392Z,18.78
2023-05-28T17:59:46.019Z,18.65
2023-05-28T18:02:52.765Z,18.53
2023-05-28T18:05:57.483Z,18.46
2023-05-28T18:09:01.780Z,18.48
2023-05-28T18:12:08.169Z,18.13
2023-05-28T18:15:18.958Z,18.08
2023-05-28T18:18:22.970Z,17.89
2023-05-28T18:21:27.114Z,17.91
2023-05-28T18:24:33.851Z,17.78
2023-05-28T18:27:37.527Z,17.65
2023-05-28T18:30:51.230Z,17.44
2023-05-28T18:33:55.766Z,17.24
2023-05-28T18:36:59.556Z,17.20
2023-05-28T18:40:04.044Z,16.81
2023-05-28T18:43:07.716Z,16.82
2023-05-28T18:46:14.929Z,16.60
2023-05-28T18:49:19.590Z,16.35
2023-05-28T18:52:24.051Z,15.94
2023-05-28T18:55:27.969Z,15.79
2023-05-28T18:58:31.804Z,15.80
2023-05-28T19:01:37.727Z,15.76
2023-05-28T19:04:44.145Z,15.69
2023-05-28T19:07:49.072Z,15.52
2023-05-28T19:10:53.359Z,15.39
2023-05-28T19:13:57.377Z,15.27
2023-05-28T19:17:04.508Z,15.32
2023-05-28T19:20:09.542Z,15.17
2023-05-28T19:23:13.180Z,14.90
2023-05-28T19:26:19.169Z,14.75
2023-05-28T19:29:22.933Z,14.59
2023-05-28T19:32:28.693Z,14.50
2023-05-28T19:35:39.605Z,14.30
2023-05-28T19:38:43.391Z,14.06
2023-05-28T19:41:47.563Z,13.91
2023-05-28T19:44:51.441Z,13.80
2023-05-28T19:47:56.680Z,13.60
2023-05-28T19:51:00.472Z,13.67
2023-05-28T19:54:04.035Z,13.59
2023-05-28T19:57:08.127Z,13.51
2023-05-28T20:00:14.672Z,13.41
2023-05-28T20:03:19.480Z,13.51
2023-05-28T20:06:23.371Z,13.31
2023-05-28T20:09:27.088Z,13.11
2023-05-28T20:12:30.426Z,12.35
2023-05-28T20:15:33.948Z,12.04
2023-05-28T20:18:41.061Z,12.58
2023-05-28T20:21:44.768Z,12.46
2023-05-28T20:24:49.615Z,12.49
2023-05-28T20:27:52.997Z,12.66
2023-05-28T20:30:56.675Z,12.79
2023-05-28T20:34:01.821Z,12.62
2023-05-28T20:37:07.554Z,12.41
2023-05-28T20:40:12.679Z,12.26
2023-05-28T20:43:16.633Z,12.39
2023-05-28T20:46:20.191Z,12.31
2023-05-28T20:49:25.080Z,12.19
2023-05-28T20:52:30.918Z,12.35
2023-05-28T20:55:36.558Z,11.99
2023-05-28T20:58:40.144Z,11.86
2023-05-28T21:01:45.173Z,11.82
2023-05-28T21:04:50.071Z,12.10
2023-05-28T21:07:53.955Z,12.17
2023-05-28T21:10:59.752Z,12.28
2023-05-28T21:14:07.320Z,12.45
2023-05-28T21:17:11.168Z,12.58
2023-05-28T21:20:16.130Z,12.89
2023-05-28T21:23:22.424Z,12.85
2023-05-28T21:26:27.243Z,12.80
2023-05-28T21:29:30.731Z,12.73
2023-05-28T21:32:34.118Z,12.82
2023-05-28T21:35:39.001Z,12.62
2023-05-28T21:38:42.308Z,12.56
2023-05-28T21:41:45.685Z,12.49
2023-05-28T21:44:49.167Z,12.26
2023-05-28T21:47:52.583Z,12.20
2023-05-28T21:50:58.038Z,12.04
2023-05-28T21:54:01.539Z,12.09
2023-05-28T21:57:06.185Z,12.08
2023-05-28T22:00:13.494Z,11.90
2023-05-28T22:03:23.067Z,11.87
2023-05-28T22:06:29.274Z,11.91
2023-05-28T22:09:32.967Z,11.71
2023-05-28T22:12:40.460Z,11.78
2023-05-28T22:15:47.224Z,11.52
2023-05-28T22:18:53.084Z,11.39
2023-05-28T22:21:58.517Z,11.19
2023-05-28T22:25:02.015Z,11.37
2023-05-28T22:28:05.531Z,11.27
2023-05-28T22:31:10.936Z,11.05
2023-05-28T22:34:14.801Z,11.13
2023-05-28T22:37:19.814Z,11.23
2023-05-28T22:40:23.767Z,11.44
2023-05-28T22:43:32.951Z,11.25
2023-05-28T22:46:36.610Z,11.03
2023-05-28T22:49:43.277Z,10.79
2023-05-28T22:52:50.244Z,10.95
2023-05-28T22:55:56.319Z,11.00
2023-05-28T22:59:00.693Z,11.48
2023-05-28T23:02:04.896Z,11.13
2023-05-28T23:05:13.135Z,10.52
2023-05-28T23:08:18.850Z,10.16
2023-05-28T23:11:23.541Z,10.14
2023-05-28T23:14:27.532Z,9.93
2023-05-28T23:17:34.049Z,9.73
2023-05-28T23:20:40.416Z,9.93
2023-05-28T23:23:45.324Z,9.58
2023-05-28T23:26:48.983Z,9.67
2023-05-28T23:29:52.511Z,9.60
2023-05-28T23:32:56.446Z,9.94
2023-05-28T23:36:05.106Z,9.78
2023-05-28T23:39:10.745Z,10.10
2023-05-28T23:42:14.422Z,10.16
2023-05-28T23:45:24.322Z,9.68
2023-05-28T23:48:33.020Z,9.38
2023-05-28T23:51:38.699Z,9.53
2023-05-28T23:54:44.595Z,9.73
2023-05-28T23:57:48.801Z,9.59
